Time;durP1;ratioP1;P1;durP2;ratioP2;P2;SDS_P1;SDS_P2;PMS_P1;PMS_P2;Temp;Humidity;BMP_temperature;BMP_pressure;BME280_temperature;BME280_humidity;BME280_pressure;Samples;Min_cycle;Max_cycle;Signal;HPM_P1;HPM_P2
2023/04/27 00:01:37;;;;;;;1.20;0.70;;;;;;;12.63;66.14;100859.61;110553;1272;22765;-54
2023/04/27 00:04:05;;;;;;;0.80;0.80;;;;;;;12.65;66.00;100856.77;110529;1271;22386;-54
2023/04/27 00:06:33;;;;;;;1.30;0.70;;;;;;;12.64;65.84;100860.27;110550;1269;22299;-54
2023/04/27 00:09:00;;;;;;;0.90;0.80;;;;;;;12.64;65.67;100854.69;110535;1270;22935;-54
2023/04/27 00:11:27;;;;;;;0.60;0.60;;;;;;;12.61;65.42;100861.91;110589;1269;22136;-54
2023/04/27 00:13:55;;;;;;;1.20;0.90;;;;;;;12.58;65.69;100866.55;110299;1274;22167;-54
2023/04/27 00:16:22;;;;;;;0.70;0.70;;;;;;;12.57;65.78;100864.47;110576;1267;23079;-54
2023/04/27 00:18:49;;;;;;;3.00;0.90;;;;;;;12.51;65.84;100861.00;110586;1270;22318;-54
2023/04/27 00:21:16;;;;;;;2.00;0.80;;;;;;;12.48;66.01;100866.98;110313;1267;22443;-54
2023/04/27 00:23:43;;;;;;;1.30;0.80;;;;;;;12.46;65.80;100868.95;110569;1275;22388;-56
2023/04/27 00:26:10;;;;;;;0.70;0.70;;;;;;;12.45;66.04;100864.98;110549;1274;22214;-54
2023/04/27 00:28:37;;;;;;;1.30;1.10;;;;;;;12.47;65.90;100865.63;110357;1267;22284;-54
2023/04/27 00:31:05;;;;;;;0.90;0.90;;;;;;;12.47;66.05;100864.61;110542;1267;22121;-54
2023/04/27 00:33:32;;;;;;;1.90;0.80;;;;;;;12.46;66.00;100863.41;110552;1274;22144;-54
2023/04/27 00:36:00;;;;;;;1.10;0.80;;;;;;;12.46;66.07;100865.67;110468;1274;22279;-54
2023/04/27 00:38:27;;;;;;;1.40;1.20;;;;;;;12.47;66.27;100862.66;110131;1274;22092;-53
2023/04/27 00:41:01;;;;;;;2.20;0.70;;;;;;;12.46;65.89;100865.48;110537;1270;22372;-54
2023/04/27 00:43:28;;;;;;;1.10;0.70;;;;;;;12.46;66.02;100857.49;109737;1270;1002139;-54
2023/04/27 00:45:56;;;;;;;1.80;1.30;;;;;;;12.46;66.09;100861.48;110513;1272;23279;-54
2023/04/27 00:48:23;;;;;;;1.00;0.90;;;;;;;12.46;66.36;100862.70;110373;1274;22293;-53
2023/04/27 00:50:50;;;;;;;1.30;0.90;;;;;;;12.45;66.10;100860.63;109782;1272;1002324;-54
2023/04/27 00:53:17;;;;;;;0.80;0.80;;;;;;;12.44;66.14;100858.23;110607;1271;22271;-53
2023/04/27 00:55:44;;;;;;;0.90;0.80;;;;;;;12.44;66.37;100851.97;110483;1274;22137;-54
2023/04/27 00:58:11;;;;;;;1.40;1.10;;;;;;;12.45;66.29;100854.39;110498;1271;23325;-54
2023/04/27 01:00:39;;;;;;;1.00;0.90;;;;;;;12.48;66.33;100845.58;110621;1267;22274;-54
2023/04/27 01:03:06;;;;;;;0.80;0.70;;;;;;;12.67;65.69;100844.52;110519;1270;22512;-54
2023/04/27 01:05:34;;;;;;;0.70;0.70;;;;;;;12.72;65.42;100850.12;110565;1274;22150;-54
2023/04/27 01:08:02;;;;;;;1.60;0.70;;;;;;;12.73;65.32;100843.81;109453;1275;1003020;-54
2023/04/27 01:10:29;;;;;;;2.40;1.20;;;;;;;12.73;64.99;100848.17;110550;1271;23238;-54
2023/04/27 01:12:56;;;;;;;0.90;0.80;;;;;;;12.73;64.94;100845.55;109851;1270;1002376;-54
2023/04/27 01:15:23;;;;;;;1.10;1.00;;;;;;;12.58;65.84;100844.80;110145;1274;22277;-54
2023/04/27 01:17:56;;;;;;;0.90;0.70;;;;;;;12.50;66.29;100845.17;110223;1274;23250;-53
2023/04/27 01:20:24;;;;;;;0.90;0.80;;;;;;;12.49;66.38;100853.41;110566;1274;22982;-54
2023/04/27 01:22:52;;;;;;;0.70;0.70;;;;;;;12.49;66.17;100854.45;110591;1273;22262;-54
2023/04/27 01:25:19;;;;;;;2.00;0.80;;;;;;;12.47;65.92;100855.55;110554;1267;22327;-54
2023/04/27 01:27:46;;;;;;;0.70;0.60;;;;;;;12.44;65.88;100856.15;110561;1274;22279;-54
2023/04/27 01:30:14;;;;;;;1.10;1.00;;;;;;;12.43;65.99;100861.90;110595;1274;22103;-54
2023/04/27 01:32:41;;;;;;;0.70;0.70;;;;;;;12.40;65.56;100863.57;110270;1274;22490;-54
2023/04/27 01:35:09;;;;;;;0.80;0.80;;;;;;;12.36;65.68;100866.10;110457;1272;22370;-54
2023/04/27 01:37:36;;;;;;;1.50;0.70;;;;;;;12.34;65.58;100866.16;110557;1269;22113;-53
2023/04/27 01:40:05;;;;;;;1.40;0.60;;;;;;;12.33;65.83;100867.05;110550;1266;22361;-54
2023/04/27 01:42:32;;;;;;;1.30;0.80;;;;;;;12.33;65.70;100869.69;110348;1274;22294;-54
2023/04/27 01:44:59;;;;;;;0.60;0.60;;;;;;;12.31;65.67;100875.63;110546;1270;22353;-54
2023/04/27 01:47:26;;;;;;;1.90;0.90;;;;;;;12.30;65.59;100876.54;110542;1269;22380;-54
2023/04/27 01:49:53;;;;;;;1.30;0.60;;;;;;;12.28;65.64;100876.94;110538;1270;22148;-53
2023/04/27 01:52:20;;;;;;;0.80;0.80;;;;;;;12.27;65.61;100878.00;110273;1274;22342;-54
2023/04/27 01:54:47;;;;;;;0.90;0.90;;;;;;;12.26;65.69;100877.16;110284;1274;22450;-54
2023/04/27 01:57:15;;;;;;;0.60;0.60;;;;;;;12.25;65.62;100877.91;110213;1267;22138;-54
2023/04/27 01:59:42;;;;;;;1.30;0.60;;;;;;;12.22;65.75;100879.69;110235;1275;22484;-54
2023/04/27 02:02:09;;;;;;;1.60;0.90;;;;;;;12.21;65.82;100878.16;110590;1274;23049;-54
2023/04/27 02:04:36;;;;;;;1.20;0.80;;;;;;;12.18;65.75;100872.33;110508;1270;22095;-54
2023/04/27 02:07:03;;;;;;;1.70;0.80;;;;;;;12.18;65.96;100875.65;110084;1271;307869;-54
2023/04/27 02:09:30;;;;;;;0.70;0.70;;;;;;;12.16;65.67;100878.30;110570;1274;22126;-54
2023/04/27 02:11:57;;;;;;;1.20;0.80;;;;;;;12.15;65.89;100877.46;110356;1270;22244;-54
2023/04/27 02:14:24;;;;;;;0.60;0.60;;;;;;;12.15;65.81;100877.98;110502;1267;22406;-54
2023/04/27 02:16:51;;;;;;;0.60;0.50;;;;;;;12.15;65.59;100883.02;109588;1274;1002885;-54
2023/04/27 02:19:18;;;;;;;1.10;0.70;;;;;;;12.16;65.47;100884.91;110300;1273;22165;-54
2023/04/27 02:21:45;;;;;;;0.80;0.70;;;;;;;12.16;65.52;100884.23;110544;1273;22828;-54
2023/04/27 02:24:12;;;;;;;0.90;0.70;;;;;;;12.15;65.48;100880.05;110462;1275;22349;-54
2023/04/27 02:26:40;;;;;;;2.60;0.70;;;;;;;12.15;65.06;100877.46;110509;1274;22426;-54
2023/04/27 02:29:07;;;;;;;0.70;0.70;;;;;;;12.12;65.09;100881.37;109402;1270;1002226;-54
2023/04/27 02:31:35;;;;;;;0.80;0.70;;;;;;;12.11;65.39;100881.23;110524;1269;22384;-54
2023/04/27 02:34:02;;;;;;;1.10;0.90;;;;;;;12.11;65.22;100884.89;110581;1274;22344;-54
2023/04/27 02:36:30;;;;;;;1.70;1.00;;;;;;;12.10;65.14;100883.14;110550;1267;22348;-53
2023/04/27 02:38:57;;;;;;;0.80;0.80;;;;;;;12.10;65.26;100881.23;110376;1274;22927;-54
2023/04/27 02:41:26;;;;;;;1.50;0.80;;;;;;;12.09;65.35;100884.56;110528;1274;22114;-54
2023/04/27 02:43:53;;;;;;;0.70;0.70;;;;;;;12.09;65.25;100889.80;110585;1274;22382;-54
2023/04/27 02:46:20;;;;;;;2.10;0.70;;;;;;;12.07;65.23;100889.16;110540;1273;22370;-53
2023/04/27 02:48:47;;;;;;;2.20;1.00;;;;;;;12.05;64.97;100893.54;110383;1274;22888;-54
2023/04/27 02:51:15;;;;;;;1.00;0.80;;;;;;;12.04;65.19;100894.28;110381;1273;22288;-53
2023/04/27 02:53:42;;;;;;;0.80;0.80;;;;;;;12.05;65.19;100895.30;110191;1274;22430;-54
2023/04/27 02:56:09;;;;;;;0.90;0.80;;;;;;;12.05;64.88;100898.25;110513;1274;22279;-53
2023/04/27 02:58:36;;;;;;;0.80;0.80;;;;;;;12.06;65.01;100898.58;110563;1269;22406;-54
2023/04/27 03:01:03;;;;;;;2.80;1.00;;;;;;;12.06;65.07;100902.21;109612;1276;1002536;-54
2023/04/27 03:03:30;;;;;;;1.60;0.80;;;;;;;12.06;64.76;100898.91;110562;1267;22410;-53
2023/04/27 03:05:58;;;;;;;2.30;1.40;;;;;;;12.06;64.70;100904.98;110544;1270;22792;-54
2023/04/27 03:08:25;;;;;;;1.10;0.80;;;;;;;12.09;64.55;100906.14;110406;1274;22375;-53
2023/04/27 03:10:52;;;;;;;1.90;1.00;;;;;;;12.09;64.32;100910.14;110545;1267;22213;-54
2023/04/27 03:13:19;;;;;;;1.70;0.80;;;;;;;12.08;64.66;100908.95;109878;1267;1006180;-54
2023/04/27 03:15:46;;;;;;;1.20;0.90;;;;;;;12.09;65.06;100907.70;110568;1267;22157;-53
2023/04/27 03:18:13;;;;;;;1.10;1.00;;;;;;;12.11;64.73;100905.05;110515;1274;22333;-54
2023/04/27 03:20:40;;;;;;;0.90;0.90;;;;;;;12.11;64.69;100905.39;110514;1270;22382;-54
2023/04/27 03:23:07;;;;;;;1.60;1.20;;;;;;;12.13;64.43;100911.09;110470;1273;22498;-54
2023/04/27 03:25:34;;;;;;;1.20;0.80;;;;;;;12.11;63.95;100909.38;110496;1274;22292;-54
2023/04/27 03:28:02;;;;;;;1.60;1.10;;;;;;;12.10;64.27;100914.45;110531;1270;22349;-53
2023/04/27 03:30:29;;;;;;;1.50;0.90;;;;;;;12.08;64.29;100918.33;110547;1267;22288;-54
2023/04/27 03:32:56;;;;;;;1.30;1.10;;;;;;;12.07;64.30;100916.29;110495;1269;22431;-53
2023/04/27 03:35:23;;;;;;;1.20;0.80;;;;;;;12.06;64.65;100912.98;110179;1274;23091;-54
2023/04/27 03:37:50;;;;;;;1.20;1.10;;;;;;;12.07;64.86;100910.00;110505;1268;22862;-53
2023/04/27 03:40:17;;;;;;;2.50;0.80;;;;;;;12.08;64.51;100914.86;110531;1275;23008;-54
2023/04/27 03:42:44;;;;;;;1.50;1.20;;;;;;;12.07;64.70;100913.66;110391;1270;22407;-54
2023/04/27 03:45:11;;;;;;;1.10;0.90;;;;;;;12.07;64.58;100923.40;110523;1268;22128;-54
2023/04/27 03:47:38;;;;;;;0.90;0.80;;;;;;;12.08;64.59;100923.39;110540;1274;22124;-54
2023/04/27 03:50:06;;;;;;;1.30;0.90;;;;;;;12.07;64.49;100922.54;110552;1274;22241;-54
2023/04/27 03:52:33;;;;;;;1.30;1.10;;;;;;;12.05;64.42;100925.02;110550;1269;23004;-54
2023/04/27 03:55:00;;;;;;;1.20;1.00;;;;;;;12.05;64.40;100927.11;110525;1274;22833;-54
2023/04/27 03:57:27;;;;;;;1.50;1.10;;;;;;;12.04;64.30;100927.30;110569;1267;22416;-53
2023/04/27 03:59:56;;;;;;;1.40;1.30;;;;;;;12.03;64.47;100931.52;110527;1274;23125;-54
2023/04/27 04:02:24;;;;;;;3.20;1.60;;;;;;;12.04;64.36;100936.37;110506;1269;22980;-54
2023/04/27 04:04:51;;;;;;;1.60;1.20;;;;;;;12.03;64.24;100933.24;109757;1275;1002450;-53
2023/04/27 04:07:19;;;;;;;1.20;1.10;;;;;;;12.01;64.34;100934.33;110582;1267;22742;-54
2023/04/27 04:09:46;;;;;;;1.80;1.20;;;;;;;12.00;64.40;100941.67;110547;1268;22273;-53
2023/04/27 04:12:13;;;;;;;1.30;1.20;;;;;;;12.00;64.56;100947.74;110532;1270;22274;-54
2023/04/27 04:14:41;;;;;;;1.60;1.10;;;;;;;12.02;64.50;100946.82;110379;1271;22276;-54
2023/04/27 04:17:09;;;;;;;1.70;1.20;;;;;;;12.04;64.52;100945.91;110568;1267;22295;-54
2023/04/27 04:19:39;;;;;;;1.70;1.30;;;;;;;12.05;64.34;100952.66;110132;1267;22282;-53
2023/04/27 04:22:06;;;;;;;1.80;1.20;;;;;;;12.04;64.27;100950.07;110180;1276;22334;-54
2023/04/27 04:24:33;;;;;;;1.20;1.10;;;;;;;12.02;63.86;100958.65;109932;1279;22303;-55
2023/04/27 04:27:01;;;;;;;1.70;1.10;;;;;;;12.01;64.29;100955.36;109181;1273;1002377;-54
2023/04/27 04:29:28;;;;;;;1.30;1.20;;;;;;;12.03;64.07;100954.47;109819;1278;22247;-54
2023/04/27 04:31:55;;;;;;;2.00;1.30;;;;;;;12.03;64.03;100955.68;109937;1276;22176;-54
2023/04/27 04:34:22;;;;;;;3.10;1.40;;;;;;;12.04;63.88;100957.02;109933;1276;22392;-54
2023/04/27 04:36:52;;;;;;;1.50;1.20;;;;;;;12.04;63.93;100954.95;109960;1276;23199;-54
2023/04/27 04:39:19;;;;;;;1.30;1.20;;;;;;;12.05;64.14;100956.69;109924;1277;23159;-54
2023/04/27 04:41:48;;;;;;;1.70;1.40;;;;;;;12.07;64.08;100956.09;109940;1276;22161;-54
2023/04/27 04:44:15;;;;;;;2.20;1.40;;;;;;;12.10;63.93;100958.10;109929;1276;22407;-53
2023/04/27 04:46:43;;;;;;;2.70;1.30;;;;;;;12.12;63.97;100962.05;109955;1276;22934;-54
2023/04/27 04:49:10;;;;;;;2.40;1.30;;;;;;;12.11;63.46;100962.77;109884;1280;22355;-53
2023/04/27 04:51:41;;;;;;;1.30;1.20;;;;;;;12.12;63.79;100968.66;109835;1280;22474;-54
2023/04/27 04:54:10;;;;;;;2.30;1.40;;;;;;;12.13;63.53;100971.77;109804;1280;23024;-53
2023/04/27 04:56:37;;;;;;;1.50;1.40;;;;;;;12.13;63.32;100971.77;109299;1278;1002498;-54
2023/04/27 04:59:05;;;;;;;1.40;1.30;;;;;;;12.11;63.20;100974.09;109948;1272;22173;-54
2023/04/27 05:01:32;;;;;;;3.90;2.10;;;;;;;12.09;62.90;100979.87;110176;1272;22827;-54
2023/04/27 05:03:59;;;;;;;2.00;1.70;;;;;;;12.04;62.62;100975.83;109398;1278;1002892;-53
2023/04/27 05:06:27;;;;;;;4.70;1.90;;;;;;;12.03;62.80;100975.84;109338;1278;1002993;-54
2023/04/27 05:08:54;;;;;;;3.40;1.90;;;;;;;12.03;62.69;100974.63;110157;1278;22276;-54
2023/04/27 05:11:21;;;;;;;1.20;1.10;;;;;;;12.02;62.75;100969.59;110148;1273;22277;-54
2023/04/27 05:13:48;;;;;;;1.80;1.70;;;;;;;12.02;63.02;100968.73;110153;1276;22415;-53
2023/04/27 05:16:15;;;;;;;2.50;1.40;;;;;;;12.03;63.03;100968.90;110122;1270;22534;-53
2023/04/27 05:18:42;;;;;;;1.90;1.50;;;;;;;12.04;62.88;100969.02;110079;1277;22551;-54
2023/04/27 05:21:16;;;;;;;1.50;1.40;;;;;;;12.04;62.73;100973.37;110058;1272;22339;-53
2023/04/27 05:23:43;;;;;;;2.20;1.70;;;;;;;12.04;63.01;100980.17;110522;1266;22340;-53
2023/04/27 05:26:13;;;;;;;2.00;1.60;;;;;;;12.04;62.90;100974.42;110519;1272;22138;-53
2023/04/27 05:28:40;;;;;;;2.40;1.60;;;;;;;12.07;63.35;100981.14;110539;1269;22082;-54
2023/04/27 05:31:08;;;;;;;2.50;1.80;;;;;;;12.08;63.18;100979.02;110514;1274;22369;-53
2023/04/27 05:33:35;;;;;;;3.60;1.60;;;;;;;12.08;62.97;100984.23;110293;1271;22295;-53
2023/04/27 05:36:02;;;;;;;1.90;1.60;;;;;;;12.08;62.85;100986.48;110490;1274;22210;-53
2023/04/27 05:38:29;;;;;;;3.50;1.70;;;;;;;12.07;62.78;100990.16;110468;1274;22140;-53
2023/04/27 05:40:57;;;;;;;2.00;1.80;;;;;;;12.08;62.91;100994.48;110563;1274;22453;-53
2023/04/27 05:43:24;;;;;;;1.50;1.40;;;;;;;12.07;62.83;100993.65;110524;1274;22890;-54
2023/04/27 05:45:51;;;;;;;1.50;1.20;;;;;;;12.07;63.13;100995.91;110457;1274;22190;-54
2023/04/27 05:48:19;;;;;;;1.90;1.70;;;;;;;12.06;62.57;100996.45;110516;1274;22381;-54
2023/04/27 05:50:46;;;;;;;2.00;1.70;;;;;;;12.04;62.76;100999.12;110521;1268;22351;-53
2023/04/27 05:53:13;;;;;;;4.00;1.70;;;;;;;12.02;62.59;100999.86;110447;1268;22453;-53
2023/04/27 05:55:40;;;;;;;2.00;1.70;;;;;;;12.01;62.75;100996.41;110224;1274;22317;-54
2023/04/27 05:58:07;;;;;;;2.70;1.70;;;;;;;12.03;62.76;100995.33;110104;1274;22141;-53
2023/04/27 06:00:35;;;;;;;2.00;1.80;;;;;;;12.04;62.62;100995.47;110568;1269;22376;-53
2023/04/27 06:03:02;;;;;;;3.70;1.50;;;;;;;12.05;62.70;100997.34;110509;1268;22192;-53
2023/04/27 06:05:30;;;;;;;1.60;1.40;;;;;;;12.07;62.53;100999.73;110477;1274;22390;-53
2023/04/27 06:07:57;;;;;;;2.20;1.70;;;;;;;12.11;62.60;101001.55;110524;1269;22900;-53
2023/04/27 06:10:24;;;;;;;1.60;1.40;;;;;;;12.13;62.30;101004.98;110495;1269;22919;-53
2023/04/27 06:12:51;;;;;;;3.40;1.50;;;;;;;12.15;62.16;101004.25;110519;1267;22112;-53
2023/04/27 06:15:18;;;;;;;2.00;1.50;;;;;;;12.15;61.97;101005.09;110532;1268;22111;-53
2023/04/27 06:17:45;;;;;;;2.60;1.70;;;;;;;12.16;61.75;101005.60;110530;1274;22160;-53
2023/04/27 06:20:12;;;;;;;2.80;1.60;;;;;;;12.17;62.14;101011.48;110545;1269;22097;-53
2023/04/27 06:22:39;;;;;;;2.60;1.70;;;;;;;12.19;62.24;101012.84;110535;1268;22271;-53
2023/04/27 06:25:06;;;;;;;2.90;1.40;;;;;;;12.20;62.03;101013.84;109749;1269;1002474;-53
2023/04/27 06:27:34;;;;;;;1.90;1.40;;;;;;;12.24;61.92;101020.03;110347;1271;22381;-53
2023/04/27 06:30:01;;;;;;;1.50;1.40;;;;;;;12.25;61.56;101021.38;110507;1267;22339;-53
2023/04/27 06:32:28;;;;;;;2.80;1.50;;;;;;;12.24;61.26;101021.91;110352;1274;23023;-53
2023/04/27 06:34:55;;;;;;;1.70;1.60;;;;;;;12.23;61.27;101026.48;110511;1268;22326;-53
2023/04/27 06:37:22;;;;;;;1.60;1.20;;;;;;;12.21;61.21;101019.91;110557;1269;22144;-53
2023/04/27 06:39:49;;;;;;;2.20;1.60;;;;;;;12.19;61.26;101021.52;110537;1271;22307;-53
2023/04/27 06:42:16;;;;;;;2.00;1.40;;;;;;;12.21;61.68;101022.01;109631;1270;1003080;-53
2023/04/27 06:44:43;;;;;;;3.10;1.50;;;;;;;12.20;61.42;101024.11;110244;1271;22129;-53
2023/04/27 06:47:10;;;;;;;3.60;1.60;;;;;;;12.19;61.52;101028.48;110337;1270;22133;-53
2023/04/27 06:51:09;;;;;;;3.60;1.60;;;;;;;11.54;63.99;101035.51;104037;1290;561072;-49
2023/04/27 06:53:36;;;;;;;3.00;1.80;;;;;;;12.04;62.59;101032.66;105936;1282;25322;-49
2023/04/27 06:56:04;;;;;;;2.40;1.60;;;;;;;12.05;62.57;101031.95;107001;1273;23298;-49
2023/04/27 06:58:32;;;;;;;2.20;1.80;;;;;;;12.04;62.79;101035.64;106631;1276;24217;-48
2023/04/27 07:01:00;;;;;;;2.40;1.70;;;;;;;12.08;62.83;101033.95;106361;1273;26954;-48
2023/04/27 07:03:27;;;;;;;1.90;1.50;;;;;;;12.04;62.68;101032.16;106570;1272;243843;-49
2023/04/27 07:05:56;;;;;;;3.40;1.90;;;;;;;12.02;62.97;101033.41;107199;1267;22542;-48
2023/04/27 07:08:23;;;;;;;2.50;1.70;;;;;;;12.02;63.00;101030.48;106725;1273;25318;-48
2023/04/27 07:10:50;;;;;;;2.90;2.00;;;;;;;12.00;63.18;101036.44;106854;1264;24028;-48
2023/04/27 07:13:17;;;;;;;2.60;1.80;;;;;;;11.98;63.08;101039.94;106848;1270;23179;-48
2023/04/27 07:15:44;;;;;;;2.40;1.80;;;;;;;11.97;63.18;101040.33;106001;1273;1002348;-48
2023/04/27 07:18:11;;;;;;;1.90;1.70;;;;;;;11.97;63.15;101038.92;106936;1271;24276;-48
2023/04/27 07:20:40;;;;;;;3.00;2.20;;;;;;;11.97;63.07;101039.79;107021;1270;22579;-48
2023/04/27 07:23:07;;;;;;;3.30;2.00;;;;;;;11.97;62.94;101037.19;107023;1270;25360;-48
2023/04/27 07:25:34;;;;;;;2.10;1.50;;;;;;;11.95;62.93;101038.27;106811;1276;25551;-48
2023/04/27 07:28:02;;;;;;;2.50;1.90;;;;;;;11.94;63.10;101048.56;106426;1270;25395;-48
2023/04/27 07:30:29;;;;;;;2.60;2.10;;;;;;;11.94;62.64;101041.77;106831;1270;25381;-48
2023/04/27 07:32:56;;;;;;;4.10;1.90;;;;;;;11.92;62.61;101043.20;106556;1270;22557;-49
2023/04/27 07:35:23;;;;;;;4.10;2.10;;;;;;;11.93;62.59;101045.64;107174;1266;22556;-49
2023/04/27 07:37:51;;;;;;;3.00;2.30;;;;;;;11.91;62.53;101047.94;106645;1272;24232;-49
2023/04/27 07:40:18;;;;;;;2.70;1.80;;;;;;;11.89;62.67;101057.20;106665;1276;25366;-49
2023/04/27 07:42:45;;;;;;;3.40;2.10;;;;;;;11.88;62.47;101057.39;106754;1273;25322;-49
2023/04/27 07:45:12;;;;;;;3.20;1.90;;;;;;;11.90;63.09;101063.58;107015;1270;22547;-48
2023/04/27 07:47:41;;;;;;;2.60;2.20;;;;;;;11.94;63.01;101063.52;107015;1270;25380;-49
2023/04/27 07:50:09;;;;;;;2.30;1.90;;;;;;;11.96;62.91;101062.94;106989;1266;25337;-48
2023/04/27 07:52:36;;;;;;;4.20;2.70;;;;;;;11.98;62.92;101061.50;107023;1270;22583;-48
2023/04/27 07:55:04;;;;;;;2.30;2.10;;;;;;;11.99;62.71;101068.09;106798;1267;25226;-48
2023/04/27 07:57:31;;;;;;;3.60;2.50;;;;;;;12.02;62.69;101070.98;105501;1270;1003831;-48
2023/04/27 07:59:58;;;;;;;2.80;2.30;;;;;;;12.05;62.45;101067.24;106808;1272;22648;-49
2023/04/27 08:02:29;;;;;;;2.70;1.90;;;;;;;12.09;62.60;101074.47;107147;1271;25334;-49
2023/04/27 08:04:56;;;;;;;4.40;2.40;;;;;;;12.13;62.51;101071.59;106780;1272;22488;-50
2023/04/27 08:07:24;;;;;;;5.80;2.60;;;;;;;12.15;62.22;101076.77;106324;1278;25331;-49
2023/04/27 08:09:51;;;;;;;2.30;1.90;;;;;;;12.16;61.83;101076.72;107409;1266;25463;-48
2023/04/27 08:12:18;;;;;;;3.00;2.20;;;;;;;12.15;61.56;101078.48;106659;1278;22569;-48
2023/04/27 08:14:46;;;;;;;4.60;2.40;;;;;;;12.14;61.86;101079.73;106865;1273;22954;-48
2023/04/27 08:17:13;;;;;;;2.40;1.80;;;;;;;12.14;61.80;101081.48;106818;1278;25571;-48
2023/04/27 08:19:40;;;;;;;1.80;1.70;;;;;;;12.13;61.59;101090.36;106964;1260;25338;-49
2023/04/27 08:22:07;;;;;;;2.40;1.90;;;;;;;12.14;61.40;101085.30;106813;1273;22522;-48
2023/04/27 08:24:35;;;;;;;2.60;1.60;;;;;;;12.13;61.11;101086.36;106700;1275;25362;-49
2023/04/27 08:27:02;;;;;;;2.00;1.80;;;;;;;12.13;61.20;101086.72;106797;1278;22555;-48
2023/04/27 08:29:29;;;;;;;1.50;1.40;;;;;;;12.15;61.04;101087.20;107072;1272;25341;-49
2023/04/27 08:32:01;;;;;;;3.30;1.80;;;;;;;12.17;60.82;101089.23;106701;1278;22615;-49
2023/04/27 08:34:29;;;;;;;2.20;1.60;;;;;;;12.17;60.87;101090.61;106528;1275;23131;-48
2023/04/27 08:36:56;;;;;;;4.10;1.60;;;;;;;12.19;60.77;101080.67;106915;1269;24262;-48
2023/04/27 08:39:24;;;;;;;2.70;1.80;;;;;;;12.18;60.18;101070.77;107071;1267;23254;-48
2023/04/27 08:41:51;;;;;;;2.60;1.80;;;;;;;12.17;60.47;101076.20;107287;1260;25478;-48
2023/04/27 08:44:18;;;;;;;3.10;1.80;;;;;;;12.19;61.12;101077.34;107257;1267;23167;-48
2023/04/27 08:46:45;;;;;;;3.30;1.70;;;;;;;12.23;60.95;101080.21;106829;1263;1003076;-48
2023/04/27 08:49:13;;;;;;;3.20;1.60;;;;;;;12.28;60.95;101076.65;107352;1267;22779;-48
2023/04/27 08:51:43;;;;;;;2.00;1.50;;;;;;;12.32;60.78;101079.66;106990;1266;25343;-48
2023/04/27 08:54:10;;;;;;;3.30;1.30;;;;;;;12.35;60.42;101082.57;107142;1266;25425;-48
2023/04/27 08:56:38;;;;;;;5.40;1.60;;;;;;;12.37;60.20;101080.42;106771;1269;25316;-49
2023/04/27 08:59:12;;;;;;;2.40;1.40;;;;;;;12.39;59.95;101077.05;107164;1260;26686;-49
2023/04/27 09:01:44;;;;;;;2.30;1.20;;;;;;;12.42;59.82;101084.80;107108;1266;25466;-48
2023/04/27 09:04:11;;;;;;;;;;;;;;;12.45;59.80;101081.26;107216;1263;25312;-49
2023/04/27 09:06:39;;;;;;;2.80;1.50;;;;;;;12.47;59.35;101081.55;107354;1267;25390;-48
2023/04/27 09:09:06;;;;;;;3.80;1.80;;;;;;;12.47;59.00;101081.38;107195;1266;22721;-48
2023/04/27 09:11:37;;;;;;;2.00;1.30;;;;;;;12.47;59.17;101081.23;107230;1267;25468;-48
2023/04/27 09:14:17;;;;;;;3.10;1.40;;;;;;;12.50;59.43;101077.66;106980;1267;25232;-49
2023/04/27 09:16:44;;;;;;;1.60;1.40;;;;;;;12.53;59.76;101085.06;106995;1269;25408;-49
2023/04/27 09:19:22;;;;;;;2.50;1.40;;;;;;;12.58;59.58;101080.42;107083;1266;22643;-49
2023/04/27 09:21:50;;;;;;;2.50;1.50;;;;;;;12.62;59.57;101077.02;107074;1251;25472;-49
2023/04/27 09:24:17;;;;;;;3.10;1.40;;;;;;;12.65;59.24;101082.83;106851;1273;25405;-49
2023/04/27 09:26:48;;;;;;;4.50;1.70;;;;;;;12.68;59.26;101082.10;107524;1266;25382;-48
2023/04/27 09:29:16;;;;;;;2.30;1.60;;;;;;;12.70;59.33;101080.63;106833;1267;24224;-48
2023/04/27 09:31:44;;;;;;;3.30;1.70;;;;;;;12.73;59.27;101082.46;106757;1275;22656;-49
2023/04/27 09:34:11;;;;;;;4.30;1.80;;;;;;;12.74;59.21;101078.77;106931;1270;25530;-48
2023/04/27 09:36:39;;;;;;;3.10;1.80;;;;;;;12.76;58.73;101079.43;106884;1274;25423;-48
2023/04/27 09:39:07;;;;;;;4.30;2.10;;;;;;;12.78;58.63;101083.39;107053;1274;23905;-49
2023/04/27 09:42:17;;;;;;;2.60;1.30;;;;;;;12.79;58.56;101083.18;106804;1270;25500;-50
2023/04/27 09:44:45;;;;;;;2.50;1.60;;;;;;;12.81;58.36;101085.23;106817;1273;25353;-50
2023/04/27 09:47:12;;;;;;;4.10;1.60;;;;;;;12.82;58.26;101087.09;106974;1272;25392;-49
2023/04/27 09:49:39;;;;;;;4.20;2.10;;;;;;;12.82;58.01;101090.59;106565;1279;22577;-49
2023/04/27 09:52:06;;;;;;;4.20;1.80;;;;;;;12.82;57.75;101083.27;106538;1260;25360;-48
2023/04/27 09:54:34;;;;;;;2.60;1.70;;;;;;;12.82;58.02;101084.14;107009;1260;25359;-48
2023/04/27 09:57:25;;;;;;;6.10;2.00;;;;;;;12.85;58.49;101088.23;106627;1261;26484;-49
2023/04/27 09:59:55;;;;;;;4.20;1.90;;;;;;;12.88;58.12;101089.03;106777;1269;22539;-48
2023/04/27 10:02:22;;;;;;;7.70;1.70;;;;;;;12.89;57.87;101088.48;106841;1272;23956;-48
2023/04/27 10:05:23;;;;;;;2.30;1.60;;;;;;;12.91;57.77;101089.33;106594;1276;26525;-48
2023/04/27 10:07:51;;;;;;;5.60;2.20;;;;;;;12.94;57.79;101088.72;106048;1283;25532;-49
2023/04/27 10:10:19;;;;;;;2.90;1.70;;;;;;;12.96;57.67;101085.52;105871;1280;24389;-48
2023/04/27 10:12:57;;;;;;;7.30;2.10;;;;;;;12.98;57.50;101086.86;105964;1283;25370;-49
2023/04/27 10:15:27;;;;;;;4.60;2.30;;;;;;;13.01;57.88;101090.27;105840;1284;25338;-48
2023/04/27 10:17:57;;;;;;;3.70;1.80;;;;;;;13.04;57.67;101086.02;106561;1281;24015;-47
2023/04/27 10:20:29;;;;;;;3.10;1.90;;;;;;;13.08;57.75;101091.69;106339;1279;24387;-47
2023/04/27 10:22:57;;;;;;;5.90;2.70;;;;;;;13.14;57.91;101095.38;105785;1281;1003606;-48
2023/04/27 10:25:27;;;;;;;3.10;2.10;;;;;;;13.17;58.05;101093.73;106504;1278;25607;-48
2023/04/27 10:27:58;;;;;;;5.40;2.10;;;;;;;13.19;57.73;101093.84;106322;1283;25360;-48
2023/04/27 10:30:30;;;;;;;4.30;2.30;;;;;;;13.20;57.62;101089.27;106321;1277;22530;-47
2023/04/27 10:33:03;;;;;;;4.50;2.20;;;;;;;13.23;57.39;101088.52;106659;1276;24279;-48
2023/04/27 10:35:34;;;;;;;3.90;2.10;;;;;;;13.24;57.42;101091.42;106346;1276;25364;-48
2023/04/27 10:38:08;;;;;;;4.20;2.10;;;;;;;13.27;56.95;101090.48;106499;1277;22525;-48
2023/04/27 10:40:36;;;;;;;5.10;2.30;;;;;;;13.32;57.16;101088.41;106513;1282;24675;-48
2023/04/27 10:43:15;;;;;;;2.90;1.90;;;;;;;13.38;57.49;101091.02;106716;1267;25359;-48
2023/04/27 10:45:42;;;;;;;4.60;2.20;;;;;;;13.48;57.24;101091.63;107025;1267;25383;-48
2023/04/27 10:48:15;;;;;;;6.00;2.10;;;;;;;13.48;56.83;101097.90;107119;1266;25471;-48
2023/04/27 10:50:43;;;;;;;4.10;2.20;;;;;;;13.48;56.37;101096.50;107299;1259;25353;-49
2023/04/27 10:53:10;;;;;;;5.30;2.20;;;;;;;13.46;56.20;101101.10;107195;1266;24376;-49
2023/04/27 10:55:37;;;;;;;5.90;3.30;;;;;;;13.45;56.62;101098.31;107118;1266;25450;-48
2023/04/27 10:58:05;;;;;;;6.20;2.50;;;;;;;13.46;57.05;101101.60;106957;1267;22525;-48
2023/04/27 11:00:43;;;;;;;4.50;2.60;;;;;;;13.48;56.78;101102.23;107129;1267;25334;-48
2023/04/27 11:03:19;;;;;;;5.00;1.90;;;;;;;13.48;56.32;101107.84;106941;1266;25362;-48
2023/04/27 11:05:47;;;;;;;3.30;2.00;;;;;;;13.46;56.31;101106.48;107178;1269;22611;-48
2023/04/27 11:08:16;;;;;;;3.80;2.30;;;;;;;13.45;56.17;101110.70;107283;1261;22669;-48
2023/04/27 11:10:45;;;;;;;4.90;3.10;;;;;;;13.46;56.33;101110.51;107188;1267;22546;-49
2023/04/27 11:13:13;;;;;;;4.50;2.60;;;;;;;13.48;56.64;101108.86;107008;1266;22743;-48
2023/04/27 11:15:44;;;;;;;5.80;2.80;;;;;;;13.49;56.52;101107.45;107368;1260;23357;-49
2023/04/27 11:18:12;;;;;;;5.10;2.60;;;;;;;13.50;56.51;101097.83;106837;1267;25340;-49
2023/04/27 11:20:39;;;;;;;7.10;2.60;;;;;;;13.51;56.39;101097.98;107093;1266;25328;-48
2023/04/27 11:23:07;;;;;;;3.60;2.40;;;;;;;13.49;56.31;101103.28;107278;1266;25328;-48